sensor_id;sensor_type;location;lat;lon;timestamp;temperature;humidity
67354;SHT30;54238;52.278;21.056;2023-06-05T00:02:12;13.67;52.50
67354;SHT30;54238;52.278;21.056;2023-06-05T00:04:42;13.64;52.71
67354;SHT30;54238;52.278;21.056;2023-06-05T00:07:13;13.60;53.18
67354;SHT30;54238;52.278;21.056;2023-06-05T00:09:43;13.56;53.37
67354;SHT30;54238;52.278;21.056;2023-06-05T00:12:15;13.48;53.63
67354;SHT30;54238;52.278;21.056;2023-06-05T00:14:42;13.45;53.99
67354;SHT30;54238;52.278;21.056;2023-06-05T00:17:13;13.45;54.15
67354;SHT30;54238;52.278;21.056;2023-06-05T00:19:43;13.44;54.23
67354;SHT30;54238;52.278;21.056;2023-06-05T00:22:10;13.42;54.28
67354;SHT30;54238;52.278;21.056;2023-06-05T00:24:37;13.37;54.40
67354;SHT30;54238;52.278;21.056;2023-06-05T00:27:09;13.35;54.51
67354;SHT30;54238;52.278;21.056;2023-06-05T00:29:40;13.33;54.60
67354;SHT30;54238;52.278;21.056;2023-06-05T00:32:08;13.28;54.67
67354;SHT30;54238;52.278;21.056;2023-06-05T00:34:42;13.26;54.73
67354;SHT30;54238;52.278;21.056;2023-06-05T00:37:11;13.24;54.84
67354;SHT30;54238;52.278;21.056;2023-06-05T00:39:42;13.19;54.91
67354;SHT30;54238;52.278;21.056;2023-06-05T00:42:14;13.17;55.33
67354;SHT30;54238;52.278;21.056;2023-06-05T00:44:42;13.12;55.43
67354;SHT30;54238;52.278;21.056;2023-06-05T00:47:09;13.09;55.59
67354;SHT30;54238;52.278;21.056;2023-06-05T00:49:39;13.05;55.72
67354;SHT30;54238;52.278;21.056;2023-06-05T00:52:08;13.00;56.08
67354;SHT30;54238;52.278;21.056;2023-06-05T00:55:10;12.93;56.08
67354;SHT30;54238;52.278;21.056;2023-06-05T00:57:42;12.88;56.18
67354;SHT30;54238;52.278;21.056;2023-06-05T01:00:15;12.81;56.20
67354;SHT30;54238;52.278;21.056;2023-06-05T01:02:46;12.78;56.48
67354;SHT30;54238;52.278;21.056;2023-06-05T01:05:22;12.75;56.51
67354;SHT30;54238;52.278;21.056;2023-06-05T01:08:11;12.74;56.80
67354;SHT30;54238;52.278;21.056;2023-06-05T01:10:43;12.74;56.92
67354;SHT30;54238;52.278;21.056;2023-06-05T01:13:45;12.74;56.80
67354;SHT30;54238;52.278;21.056;2023-06-05T01:16:15;12.71;56.86
67354;SHT30;54238;52.278;21.056;2023-06-05T01:18:45;12.66;57.08
67354;SHT30;54238;52.278;21.056;2023-06-05T01:21:16;12.65;57.36
67354;SHT30;54238;52.278;21.056;2023-06-05T01:23:48;12.62;57.38
67354;SHT30;54238;52.278;21.056;2023-06-05T01:26:18;12.60;57.60
67354;SHT30;54238;52.278;21.056;2023-06-05T01:29:01;12.56;57.87
67354;SHT30;54238;52.278;21.056;2023-06-05T01:31:43;12.53;58.10
67354;SHT30;54238;52.278;21.056;2023-06-05T01:34:15;12.53;58.05
67354;SHT30;54238;52.278;21.056;2023-06-05T01:36:46;12.53;58.05
67354;SHT30;54238;52.278;21.056;2023-06-05T01:39:15;12.53;57.96
67354;SHT30;54238;52.278;21.056;2023-06-05T01:41:48;12.50;57.98
67354;SHT30;54238;52.278;21.056;2023-06-05T01:44:22;12.47;57.91
67354;SHT30;54238;52.278;21.056;2023-06-05T01:46:49;12.48;57.62
67354;SHT30;54238;52.278;21.056;2023-06-05T01:49:19;12.43;57.54
67354;SHT30;54238;52.278;21.056;2023-06-05T01:51:49;12.40;57.72
67354;SHT30;54238;52.278;21.056;2023-06-05T01:54:23;12.35;57.86
67354;SHT30;54238;52.278;21.056;2023-06-05T01:56:53;12.31;57.83
67354;SHT30;54238;52.278;21.056;2023-06-05T01:59:22;12.32;57.94
67354;SHT30;54238;52.278;21.056;2023-06-05T02:01:51;12.33;57.97
67354;SHT30;54238;52.278;21.056;2023-06-05T02:04:21;12.30;57.77
67354;SHT30;54238;52.278;21.056;2023-06-05T02:06:51;12.25;57.94
67354;SHT30;54238;52.278;21.056;2023-06-05T02:09:19;12.19;58.02
67354;SHT30;54238;52.278;21.056;2023-06-05T02:11:51;12.16;58.22
67354;SHT30;54238;52.278;21.056;2023-06-05T02:14:22;12.14;58.27
67354;SHT30;54238;52.278;21.056;2023-06-05T02:16:52;12.12;58.35
67354;SHT30;54238;52.278;21.056;2023-06-05T02:19:22;12.10;58.55
67354;SHT30;54238;52.278;21.056;2023-06-05T02:24:30;12.06;58.55
67354;SHT30;54238;52.278;21.056;2023-06-05T02:29:57;12.01;58.50
67354;SHT30;54238;52.278;21.056;2023-06-05T02:32:27;11.97;58.33
67354;SHT30;54238;52.278;21.056;2023-06-05T02:34:55;11.92;58.20
67354;SHT30;54238;52.278;21.056;2023-06-05T02:37:34;11.89;58.34
67354;SHT30;54238;52.278;21.056;2023-06-05T02:40:06;11.88;58.48
67354;SHT30;54238;52.278;21.056;2023-06-05T02:42:43;11.86;58.54
67354;SHT30;54238;52.278;21.056;2023-06-05T02:45:12;11.86;58.70
67354;SHT30;54238;52.278;21.056;2023-06-05T02:47:40;11.84;58.57
67354;SHT30;54238;52.278;21.056;2023-06-05T02:50:11;11.82;58.56
67354;SHT30;54238;52.278;21.056;2023-06-05T02:52:39;11.85;58.71
67354;SHT30;54238;52.278;21.056;2023-06-05T02:55:11;11.86;58.81
67354;SHT30;54238;52.278;21.056;2023-06-05T02:57:41;11.82;58.65
67354;SHT30;54238;52.278;21.056;2023-06-05T03:00:10;11.81;58.94
67354;SHT30;54238;52.278;21.056;2023-06-05T03:02:45;11.80;58.95
67354;SHT30;54238;52.278;21.056;2023-06-05T03:05:17;11.78;58.96
67354;SHT30;54238;52.278;21.056;2023-06-05T03:07:56;11.78;58.96
67354;SHT30;54238;52.278;21.056;2023-06-05T03:10:28;11.83;59.16
67354;SHT30;54238;52.278;21.056;2023-06-05T03:13:00;11.84;58.91
67354;SHT30;54238;52.278;21.056;2023-06-05T03:15:31;11.84;58.60
67354;SHT30;54238;52.278;21.056;2023-06-05T03:18:01;11.84;58.55
67354;SHT30;54238;52.278;21.056;2023-06-05T03:20:28;11.87;58.71
67354;SHT30;54238;52.278;21.056;2023-06-05T03:22:58;11.89;58.99
67354;SHT30;54238;52.278;21.056;2023-06-05T03:25:25;11.88;59.19
67354;SHT30;54238;52.278;21.056;2023-06-05T03:27:52;11.93;59.37
67354;SHT30;54238;52.278;21.056;2023-06-05T03:30:19;12.00;59.28
67354;SHT30;54238;52.278;21.056;2023-06-05T03:32:52;12.02;59.16
67354;SHT30;54238;52.278;21.056;2023-06-05T03:35:22;12.03;59.12
67354;SHT30;54238;52.278;21.056;2023-06-05T03:37:49;12.08;58.84
67354;SHT30;54238;52.278;21.056;2023-06-05T03:40:21;12.11;58.44
67354;SHT30;54238;52.278;21.056;2023-06-05T03:42:48;12.16;58.41
67354;SHT30;54238;52.278;21.056;2023-06-05T03:45:18;12.23;58.29
67354;SHT30;54238;52.278;21.056;2023-06-05T03:47:51;12.29;58.24
67354;SHT30;54238;52.278;21.056;2023-06-05T03:50:23;12.38;58.34
67354;SHT30;54238;52.278;21.056;2023-06-05T03:52:53;12.45;58.23
67354;SHT30;54238;52.278;21.056;2023-06-05T03:55:32;12.49;58.07
67354;SHT30;54238;52.278;21.056;2023-06-05T03:58:15;12.53;58.14
67354;SHT30;54238;52.278;21.056;2023-06-05T04:00:49;12.58;58.00
67354;SHT30;54238;52.278;21.056;2023-06-05T04:03:20;12.65;57.99
67354;SHT30;54238;52.278;21.056;2023-06-05T04:05:47;12.77;57.84
67354;SHT30;54238;52.278;21.056;2023-06-05T04:08:14;12.89;57.67
67354;SHT30;54238;52.278;21.056;2023-06-05T04:10:43;12.99;57.27
67354;SHT30;54238;52.278;21.056;2023-06-05T04:13:11;13.08;57.01
67354;SHT30;54238;52.278;21.056;2023-06-05T04:15:40;13.18;56.73
67354;SHT30;54238;52.278;21.056;2023-06-05T04:18:15;13.24;56.51
67354;SHT30;54238;52.278;21.056;2023-06-05T04:20:42;13.32;56.31
67354;SHT30;54238;52.278;21.056;2023-06-05T04:23:09;13.39;56.28
67354;SHT30;54238;52.278;21.056;2023-06-05T04:25:38;13.48;56.18
67354;SHT30;54238;52.278;21.056;2023-06-05T04:28:17;13.59;55.91
67354;SHT30;54238;52.278;21.056;2023-06-05T04:30:45;13.73;55.63
67354;SHT30;54238;52.278;21.056;2023-06-05T04:33:17;13.85;55.04
67354;SHT30;54238;52.278;21.056;2023-06-05T04:35:44;13.96;54.84
67354;SHT30;54238;52.278;21.056;2023-06-05T04:38:14;14.05;54.71
67354;SHT30;54238;52.278;21.056;2023-06-05T04:40:47;14.10;54.46
67354;SHT30;54238;52.278;21.056;2023-06-05T04:43:22;14.17;54.17
67354;SHT30;54238;52.278;21.056;2023-06-05T04:45:56;14.25;53.85
67354;SHT30;54238;52.278;21.056;2023-06-05T04:48:58;14.36;53.76
67354;SHT30;54238;52.278;21.056;2023-06-05T04:51:33;14.40;53.61
67354;SHT30;54238;52.278;21.056;2023-06-05T04:54:05;14.46;53.29
67354;SHT30;54238;52.278;21.056;2023-06-05T04:56:35;14.57;53.16
67354;SHT30;54238;52.278;21.056;2023-06-05T04:59:06;14.69;53.28
67354;SHT30;54238;52.278;21.056;2023-06-05T05:01:58;14.78;52.71
67354;SHT30;54238;52.278;21.056;2023-06-05T05:04:26;14.89;52.40
67354;SHT30;54238;52.278;21.056;2023-06-05T05:06:56;15.01;51.95
67354;SHT30;54238;52.278;21.056;2023-06-05T05:09:30;15.13;51.48
67354;SHT30;54238;52.278;21.056;2023-06-05T05:12:00;15.24;51.30
67354;SHT30;54238;52.278;21.056;2023-06-05T05:14:29;15.36;50.90
67354;SHT30;54238;52.278;21.056;2023-06-05T05:17:01;15.47;50.65
67354;SHT30;54238;52.278;21.056;2023-06-05T05:19:33;15.57;50.41
67354;SHT30;54238;52.278;21.056;2023-06-05T05:22:00;15.65;50.01
67354;SHT30;54238;52.278;21.056;2023-06-05T05:24:30;15.77;49.82
67354;SHT30;54238;52.278;21.056;2023-06-05T05:26:57;15.89;49.41
67354;SHT30;54238;52.278;21.056;2023-06-05T05:29:27;15.99;49.16
67354;SHT30;54238;52.278;21.056;2023-06-05T05:31:57;16.10;48.96
67354;SHT30;54238;52.278;21.056;2023-06-05T05:34:24;16.20;48.51
67354;SHT30;54238;52.278;21.056;2023-06-05T05:36:53;16.28;48.20
67354;SHT30;54238;52.278;21.056;2023-06-05T05:39:21;16.38;47.89
67354;SHT30;54238;52.278;21.056;2023-06-05T05:41:52;16.49;47.42
67354;SHT30;54238;52.278;21.056;2023-06-05T05:44:24;16.61;47.12
67354;SHT30;54238;52.278;21.056;2023-06-05T05:46:56;16.71;46.90
67354;SHT30;54238;52.278;21.056;2023-06-05T05:49:29;16.82;46.39
67354;SHT30;54238;52.278;21.056;2023-06-05T05:52:01;16.92;45.95
67354;SHT30;54238;52.278;21.056;2023-06-05T05:54:31;17.04;45.71
67354;SHT30;54238;52.278;21.056;2023-06-05T05:57:03;17.17;45.45
67354;SHT30;54238;52.278;21.056;2023-06-05T05:59:34;17.29;45.24
67354;SHT30;54238;52.278;21.056;2023-06-05T06:02:10;17.43;44.95
67354;SHT30;54238;52.278;21.056;2023-06-05T06:04:45;17.55;44.66
67354;SHT30;54238;52.278;21.056;2023-06-05T06:07:17;17.68;43.92
67354;SHT30;54238;52.278;21.056;2023-06-05T06:09:49;17.81;43.57
67354;SHT30;54238;52.278;21.056;2023-06-05T06:12:23;17.94;42.87
67354;SHT30;54238;52.278;21.056;2023-06-05T06:14:54;18.09;42.60
67354;SHT30;54238;52.278;21.056;2023-06-05T06:17:24;18.23;42.18
67354;SHT30;54238;52.278;21.056;2023-06-05T06:19:53;18.35;41.20
67354;SHT30;54238;52.278;21.056;2023-06-05T06:22:23;18.48;41.26
67354;SHT30;54238;52.278;21.056;2023-06-05T06:24:55;18.59;40.90
67354;SHT30;54238;52.278;21.056;2023-06-05T06:27:31;18.72;40.31
67354;SHT30;54238;52.278;21.056;2023-06-05T06:30:01;18.83;39.89
67354;SHT30;54238;52.278;21.056;2023-06-05T06:32:34;18.95;39.44
67354;SHT30;54238;52.278;21.056;2023-06-05T06:35:05;19.05;39.17
67354;SHT30;54238;52.278;21.056;2023-06-05T06:37:36;19.16;39.50
67354;SHT30;54238;52.278;21.056;2023-06-05T06:40:09;19.25;39.26
67354;SHT30;54238;52.278;21.056;2023-06-05T06:42:40;19.36;38.92
67354;SHT30;54238;52.278;21.056;2023-06-05T06:45:10;19.46;38.79
67354;SHT30;54238;52.278;21.056;2023-06-05T06:47:43;19.57;38.64
67354;SHT30;54238;52.278;21.056;2023-06-05T06:50:10;19.68;38.61
67354;SHT30;54238;52.278;21.056;2023-06-05T06:52:41;19.78;37.39
67354;SHT30;54238;52.278;21.056;2023-06-05T06:55:08;19.88;37.21
67354;SHT30;54238;52.278;21.056;2023-06-05T06:57:36;20.00;36.72
67354;SHT30;54238;52.278;21.056;2023-06-05T07:00:04;20.11;36.20
67354;SHT30;54238;52.278;21.056;2023-06-05T07:02:40;20.21;35.85
67354;SHT30;54238;52.278;21.056;2023-06-05T07:05:09;20.31;36.07
67354;SHT30;54238;52.278;21.056;2023-06-05T07:07:41;20.44;35.60
67354;SHT30;54238;52.278;21.056;2023-06-05T07:10:12;20.54;34.78
67354;SHT30;54238;52.278;21.056;2023-06-05T07:12:42;20.62;35.16
67354;SHT30;54238;52.278;21.056;2023-06-05T07:15:14;20.73;34.51
67354;SHT30;54238;52.278;21.056;2023-06-05T07:17:48;20.84;34.18
67354;SHT30;54238;52.278;21.056;2023-06-05T07:20:15;20.96;33.88
67354;SHT30;54238;52.278;21.056;2023-06-05T07:22:45;21.05;33.80
67354;SHT30;54238;52.278;21.056;2023-06-05T07:25:25;21.11;33.42
67354;SHT30;54238;52.278;21.056;2023-06-05T07:30:52;21.31;33.35
67354;SHT30;54238;52.278;21.056;2023-06-05T07:33:21;21.45;32.80
67354;SHT30;54238;52.278;21.056;2023-06-05T07:35:50;21.56;32.86
67354;SHT30;54238;52.278;21.056;2023-06-05T07:38:19;21.65;32.82
67354;SHT30;54238;52.278;21.056;2023-06-05T07:40:47;21.75;32.76
67354;SHT30;54238;52.278;21.056;2023-06-05T07:43:18;21.85;32.92
67354;SHT30;54238;52.278;21.056;2023-06-05T07:45:47;21.94;32.72
67354;SHT30;54238;52.278;21.056;2023-06-05T07:48:19;22.00;32.79
67354;SHT30;54238;52.278;21.056;2023-06-05T07:50:49;22.12;33.77
67354;SHT30;54238;52.278;21.056;2023-06-05T07:53:21;22.23;31.86
67354;SHT30;54238;52.278;21.056;2023-06-05T07:55:52;22.27;31.00
67354;SHT30;54238;52.278;21.056;2023-06-05T07:58:21;22.32;31.05
67354;SHT30;54238;52.278;21.056;2023-06-05T08:00:48;22.39;30.60
67354;SHT30;54238;52.278;21.056;2023-06-05T08:03:23;22.41;30.14
67354;SHT30;54238;52.278;21.056;2023-06-05T08:05:51;22.41;30.52
67354;SHT30;54238;52.278;21.056;2023-06-05T08:08:18;22.45;29.93
67354;SHT30;54238;52.278;21.056;2023-06-05T08:10:45;22.50;30.35
67354;SHT30;54238;52.278;21.056;2023-06-05T08:13:17;22.53;30.88
67354;SHT30;54238;52.278;21.056;2023-06-05T08:15:46;22.59;31.08
67354;SHT30;54238;52.278;21.056;2023-06-05T08:18:18;22.67;31.63
67354;SHT30;54238;52.278;21.056;2023-06-05T08:20:50;22.80;31.77
67354;SHT30;54238;52.278;21.056;2023-06-05T08:23:20;22.93;31.33
67354;SHT30;54238;52.278;21.056;2023-06-05T08:25:49;23.03;31.53
67354;SHT30;54238;52.278;21.056;2023-06-05T08:28:16;23.15;31.29
67354;SHT30;54238;52.278;21.056;2023-06-05T08:30:43;23.23;30.80
67354;SHT30;54238;52.278;21.056;2023-06-05T08:33:13;23.30;30.27
67354;SHT30;54238;52.278;21.056;2023-06-05T08:35:43;23.37;29.76
67354;SHT30;54238;52.278;21.056;2023-06-05T08:38:12;23.41;29.41
67354;SHT30;54238;52.278;21.056;2023-06-05T08:40:42;23.42;29.20
67354;SHT30;54238;52.278;21.056;2023-06-05T08:43:15;23.41;28.97
67354;SHT30;54238;52.278;21.056;2023-06-05T08:45:44;23.43;29.36
67354;SHT30;54238;52.278;21.056;2023-06-05T08:48:11;23.52;28.79
67354;SHT30;54238;52.278;21.056;2023-06-05T08:50:43;23.62;28.91
67354;SHT30;54238;52.278;21.056;2023-06-05T08:53:16;23.74;29.53
67354;SHT30;54238;52.278;21.056;2023-06-05T08:55:47;23.89;30.02
67354;SHT30;54238;52.278;21.056;2023-06-05T08:58:22;24.09;30.05
67354;SHT30;54238;52.278;21.056;2023-06-05T09:00:50;24.23;29.29
67354;SHT30;54238;52.278;21.056;2023-06-05T09:03:19;24.29;29.01
67354;SHT30;54238;52.278;21.056;2023-06-05T09:05:49;24.40;28.76
67354;SHT30;54238;52.278;21.056;2023-06-05T09:08:30;24.44;27.92
67354;SHT30;54238;52.278;21.056;2023-06-05T09:13:50;24.54;27.04
67354;SHT30;54238;52.278;21.056;2023-06-05T09:16:21;24.57;27.34
67354;SHT30;54238;52.278;21.056;2023-06-05T09:18:58;24.74;27.96
67354;SHT30;54238;52.278;21.056;2023-06-05T09:21:28;24.95;27.67
67354;SHT30;54238;52.278;21.056;2023-06-05T09:24:12;25.15;27.13
67354;SHT30;54238;52.278;21.056;2023-06-05T09:26:51;25.33;26.58
67354;SHT30;54238;52.278;21.056;2023-06-05T09:29:36;25.57;26.57
67354;SHT30;54238;52.278;21.056;2023-06-05T09:32:16;25.70;25.48
67354;SHT30;54238;52.278;21.056;2023-06-05T09:34:54;25.79;25.04
67354;SHT30;54238;52.278;21.056;2023-06-05T09:37:36;25.90;24.87
67354;SHT30;54238;52.278;21.056;2023-06-05T09:40:07;25.96;24.55
67354;SHT30;54238;52.278;21.056;2023-06-05T09:42:41;25.83;24.43
67354;SHT30;54238;52.278;21.056;2023-06-05T09:45:11;25.81;24.34
67354;SHT30;54238;52.278;21.056;2023-06-05T09:47:41;25.89;24.60
67354;SHT30;54238;52.278;21.056;2023-06-05T09:50:20;26.04;24.43
67354;SHT30;54238;52.278;21.056;2023-06-05T09:52:51;26.17;24.42
67354;SHT30;54238;52.278;21.056;2023-06-05T09:55:29;26.36;25.16
67354;SHT30;54238;52.278;21.056;2023-06-05T09:57:56;26.55;25.12
67354;SHT30;54238;52.278;21.056;2023-06-05T10:00:30;26.81;24.99
67354;SHT30;54238;52.278;21.056;2023-06-05T10:03:00;27.07;25.08
67354;SHT30;54238;52.278;21.056;2023-06-05T10:05:34;27.40;24.86
67354;SHT30;54238;52.278;21.056;2023-06-05T10:08:09;27.71;24.18
67354;SHT30;54238;52.278;21.056;2023-06-05T10:10:40;27.94;23.48
67354;SHT30;54238;52.278;21.056;2023-06-05T10:13:13;28.12;23.61
67354;SHT30;54238;52.278;21.056;2023-06-05T10:15:46;28.32;23.18
67354;SHT30;54238;52.278;21.056;2023-06-05T10:18:22;28.51;23.00
67354;SHT30;54238;52.278;21.056;2023-06-05T10:20:52;28.68;22.46
67354;SHT30;54238;52.278;21.056;2023-06-05T10:23:23;28.79;21.39
67354;SHT30;54238;52.278;21.056;2023-06-05T10:25:53;28.80;21.47
67354;SHT30;54238;52.278;21.056;2023-06-05T10:28:29;28.90;22.09
67354;SHT30;54238;52.278;21.056;2023-06-05T10:31:34;29.13;22.10
67354;SHT30;54238;52.278;21.056;2023-06-05T10:34:23;29.41;21.91
67354;SHT30;54238;52.278;21.056;2023-06-05T10:40:33;29.88;21.31
67354;SHT30;54238;52.278;21.056;2023-06-05T10:51:47;30.68;20.40
67354;SHT30;54238;52.278;21.056;2023-06-05T11:07:18;31.16;19.73
67354;SHT30;54238;52.278;21.056;2023-06-05T11:20:55;32.01;19.32
67354;SHT30;54238;52.278;21.056;2023-06-05T11:23:24;32.15;19.59
67354;SHT30;54238;52.278;21.056;2023-06-05T11:25:56;32.28;19.52
67354;SHT30;54238;52.278;21.056;2023-06-05T11:31:27;32.56;18.52
67354;SHT30;54238;52.278;21.056;2023-06-05T11:34:00;32.48;18.48
67354;SHT30;54238;52.278;21.056;2023-06-05T11:36:30;32.40;18.63
67354;SHT30;54238;52.278;21.056;2023-06-05T11:39:00;32.49;18.61
67354;SHT30;54238;52.278;21.056;2023-06-05T11:41:32;32.66;18.73
67354;SHT30;54238;52.278;21.056;2023-06-05T11:43:59;32.89;18.18
67354;SHT30;54238;52.278;21.056;2023-06-05T11:49:23;32.96;17.94
67354;SHT30;54238;52.278;21.056;2023-06-05T11:51:55;33.06;17.61
67354;SHT30;54238;52.278;21.056;2023-06-05T11:54:24;33.14;17.56
67354;SHT30;54238;52.278;21.056;2023-06-05T11:57:07;33.23;17.41
67354;SHT30;54238;52.278;21.056;2023-06-05T11:59:39;33.43;17.89
67354;SHT30;54238;52.278;21.056;2023-06-05T12:02:15;33.63;18.38
67354;SHT30;54238;52.278;21.056;2023-06-05T12:04:50;33.85;17.40
67354;SHT30;54238;52.278;21.056;2023-06-05T12:07:29;33.90;17.99
67354;SHT30;54238;52.278;21.056;2023-06-05T12:09:58;34.00;18.12
67354;SHT30;54238;52.278;21.056;2023-06-05T12:12:29;34.19;17.99
67354;SHT30;54238;52.278;21.056;2023-06-05T12:14:56;34.47;17.97
67354;SHT30;54238;52.278;21.056;2023-06-05T12:17:24;34.65;17.68
67354;SHT30;54238;52.278;21.056;2023-06-05T12:19:59;34.76;17.48
67354;SHT30;54238;52.278;21.056;2023-06-05T12:22:26;34.84;17.11
67354;SHT30;54238;52.278;21.056;2023-06-05T12:27:45;34.87;16.60
67354;SHT30;54238;52.278;21.056;2023-06-05T12:30:16;34.99;16.00
67354;SHT30;54238;52.278;21.056;2023-06-05T12:32:48;34.97;16.02
67354;SHT30;54238;52.278;21.056;2023-06-05T12:35:22;34.98;16.81
67354;SHT30;54238;52.278;21.056;2023-06-05T12:37:51;35.12;17.17
67354;SHT30;54238;52.278;21.056;2023-06-05T12:40:20;35.24;16.48
67354;SHT30;54238;52.278;21.056;2023-06-05T12:42:52;35.42;15.98
67354;SHT30;54238;52.278;21.056;2023-06-05T12:45:25;35.47;15.93
67354;SHT30;54238;52.278;21.056;2023-06-05T12:47:57;35.56;15.52
67354;SHT30;54238;52.278;21.056;2023-06-05T12:50:24;35.55;15.36
67354;SHT30;54238;52.278;21.056;2023-06-05T12:52:57;35.58;15.87
67354;SHT30;54238;52.278;21.056;2023-06-05T12:55:26;35.63;16.15
67354;SHT30;54238;52.278;21.056;2023-06-05T12:57:54;35.63;15.75
67354;SHT30;54238;52.278;21.056;2023-06-05T13:00:22;35.52;15.32
67354;SHT30;54238;52.278;21.056;2023-06-05T13:02:51;35.35;15.44
67354;SHT30;54238;52.278;21.056;2023-06-05T13:05:22;35.42;15.71
67354;SHT30;54238;52.278;21.056;2023-06-05T13:07:51;35.47;15.16
67354;SHT30;54238;52.278;21.056;2023-06-05T13:10:20;35.42;14.94
67354;SHT30;54238;52.278;21.056;2023-06-05T13:12:50;35.29;14.93
67354;SHT30;54238;52.278;21.056;2023-06-05T13:15:18;35.14;15.17
67354;SHT30;54238;52.278;21.056;2023-06-05T13:17:48;35.08;15.34
67354;SHT30;54238;52.278;21.056;2023-06-05T13:20:17;35.17;15.60
67354;SHT30;54238;52.278;21.056;2023-06-05T13:22:47;35.31;15.73
67354;SHT30;54238;52.278;21.056;2023-06-05T13:25:17;35.46;15.61
67354;SHT30;54238;52.278;21.056;2023-06-05T13:27:44;35.46;15.03
67354;SHT30;54238;52.278;21.056;2023-06-05T13:30:11;35.25;14.99
67354;SHT30;54238;52.278;21.056;2023-06-05T13:32:41;35.13;15.13
67354;SHT30;54238;52.278;21.056;2023-06-05T13:35:13;35.07;15.42
67354;SHT30;54238;52.278;21.056;2023-06-05T13:37:42;35.05;15.77
67354;SHT30;54238;52.278;21.056;2023-06-05T13:40:15;35.05;15.67
67354;SHT30;54238;52.278;21.056;2023-06-05T13:42:42;35.20;15.91
67354;SHT30;54238;52.278;21.056;2023-06-05T13:45:10;35.48;15.61
67354;SHT30;54238;52.278;21.056;2023-06-05T13:47:42;35.60;15.35
67354;SHT30;54238;52.278;21.056;2023-06-05T13:50:15;35.58;15.73
67354;SHT30;54238;52.278;21.056;2023-06-05T13:52:45;35.70;15.74
67354;SHT30;54238;52.278;21.056;2023-06-05T13:55:13;35.92;15.32
67354;SHT30;54238;52.278;21.056;2023-06-05T13:57:40;35.93;15.05
67354;SHT30;54238;52.278;21.056;2023-06-05T14:00:08;35.91;15.20
67354;SHT30;54238;52.278;21.056;2023-06-05T14:02:42;35.98;15.39
67354;SHT30;54238;52.278;21.056;2023-06-05T14:05:15;35.96;15.13
67354;SHT30;54238;52.278;21.056;2023-06-05T14:07:42;35.78;15.29
67354;SHT30;54238;52.278;21.056;2023-06-05T14:10:16;35.83;15.27
67354;SHT30;54238;52.278;21.056;2023-06-05T14:12:48;35.95;15.34
67354;SHT30;54238;52.278;21.056;2023-06-05T14:15:21;36.03;15.37
67354;SHT30;54238;52.278;21.056;2023-06-05T14:17:51;36.05;14.93
67354;SHT30;54238;52.278;21.056;2023-06-05T14:20:21;36.06;15.00
67354;SHT30;54238;52.278;21.056;2023-06-05T14:22:53;35.87;14.62
67354;SHT30;54238;52.278;21.056;2023-06-05T14:25:29;35.77;15.22
67354;SHT30;54238;52.278;21.056;2023-06-05T14:28:01;35.82;15.69
67354;SHT30;54238;52.278;21.056;2023-06-05T14:30:33;35.79;15.79
67354;SHT30;54238;52.278;21.056;2023-06-05T14:33:05;35.76;15.75
67354;SHT30;54238;52.278;21.056;2023-06-05T14:35:32;35.71;15.81
67354;SHT30;54238;52.278;21.056;2023-06-05T14:38:00;35.68;15.58
67354;SHT30;54238;52.278;21.056;2023-06-05T14:40:27;35.64;15.32
67354;SHT30;54238;52.278;21.056;2023-06-05T14:43:04;35.65;15.58
67354;SHT30;54238;52.278;21.056;2023-06-05T14:45:32;35.63;15.84
67354;SHT30;54238;52.278;21.056;2023-06-05T14:48:04;35.24;16.01
67354;SHT30;54238;52.278;21.056;2023-06-05T14:50:31;34.88;16.22
67354;SHT30;54238;52.278;21.056;2023-06-05T14:53:01;34.74;16.34
67354;SHT30;54238;52.278;21.056;2023-06-05T14:55:30;34.61;16.11
67354;SHT30;54238;52.278;21.056;2023-06-05T14:57:59;34.57;15.86
67354;SHT30;54238;52.278;21.056;2023-06-05T15:00:29;34.58;16.17
67354;SHT30;54238;52.278;21.056;2023-06-05T15:02:56;34.65;16.57
67354;SHT30;54238;52.278;21.056;2023-06-05T15:05:23;34.68;16.68
67354;SHT30;54238;52.278;21.056;2023-06-05T15:07:52;34.57;16.13
67354;SHT30;54238;52.278;21.056;2023-06-05T15:10:19;34.31;16.05
67354;SHT30;54238;52.278;21.056;2023-06-05T15:12:47;34.18;15.96
67354;SHT30;54238;52.278;21.056;2023-06-05T15:15:23;33.99;16.53
67354;SHT30;54238;52.278;21.056;2023-06-05T15:17:51;33.67;17.00
67354;SHT30;54238;52.278;21.056;2023-06-05T15:20:19;33.28;17.16
67354;SHT30;54238;52.278;21.056;2023-06-05T15:22:52;32.93;17.32
67354;SHT30;54238;52.278;21.056;2023-06-05T15:25:20;32.78;17.40
67354;SHT30;54238;52.278;21.056;2023-06-05T15:27:50;32.74;17.75
67354;SHT30;54238;52.278;21.056;2023-06-05T15:30:22;32.80;17.76
67354;SHT30;54238;52.278;21.056;2023-06-05T15:32:49;32.88;17.91
67354;SHT30;54238;52.278;21.056;2023-06-05T15:35:16;32.98;17.49
67354;SHT30;54238;52.278;21.056;2023-06-05T15:37:46;32.92;17.35
67354;SHT30;54238;52.278;21.056;2023-06-05T15:40:13;32.88;17.44
67354;SHT30;54238;52.278;21.056;2023-06-05T15:42:45;32.86;17.72
67354;SHT30;54238;52.278;21.056;2023-06-05T15:45:34;32.92;17.75
67354;SHT30;54238;52.278;21.056;2023-06-05T15:48:06;33.00;17.84
67354;SHT30;54238;52.278;21.056;2023-06-05T15:50:38;32.94;17.75
67354;SHT30;54238;52.278;21.056;2023-06-05T15:53:06;32.89;17.75
67354;SHT30;54238;52.278;21.056;2023-06-05T15:55:36;32.77;17.84
67354;SHT30;54238;52.278;21.056;2023-06-05T15:58:12;32.51;17.66
67354;SHT30;54238;52.278;21.056;2023-06-05T16:00:41;32.18;18.03
67354;SHT30;54238;52.278;21.056;2023-06-05T16:03:11;32.01;18.12
67354;SHT30;54238;52.278;21.056;2023-06-05T16:05:42;32.01;18.44
67354;SHT30;54238;52.278;21.056;2023-06-05T16:08:09;32.00;18.44
67354;SHT30;54238;52.278;21.056;2023-06-05T16:10:39;31.91;18.57
67354;SHT30;54238;52.278;21.056;2023-06-05T16:13:10;31.82;18.84
67354;SHT30;54238;52.278;21.056;2023-06-05T16:15:46;31.75;18.52
67354;SHT30;54238;52.278;21.056;2023-06-05T16:18:18;31.57;18.36
67354;SHT30;54238;52.278;21.056;2023-06-05T16:20:48;31.45;18.72
67354;SHT30;54238;52.278;21.056;2023-06-05T16:23:17;31.39;18.88
67354;SHT30;54238;52.278;21.056;2023-06-05T16:25:46;31.27;18.89
67354;SHT30;54238;52.278;21.056;2023-06-05T16:28:14;31.21;19.13
67354;SHT30;54238;52.278;21.056;2023-06-05T16:30:44;31.18;18.92
67354;SHT30;54238;52.278;21.056;2023-06-05T16:33:16;31.07;19.29
67354;SHT30;54238;52.278;21.056;2023-06-05T16:35:45;31.00;19.61
67354;SHT30;54238;52.278;21.056;2023-06-05T16:38:16;30.94;19.24